sensor_id;sensor_type;location;lat;lon;timestamp;P1;durP1;ratioP1;P2;durP2;ratioP2
47349;SDS011;33088;51.982;5.872;2022-10-16T00:00:37;4.53;;;3.10;;
47349;SDS011;33088;51.982;5.872;2022-10-16T00:03:04;9.93;;;4.30;;
47349;SDS011;33088;51.982;5.872;2022-10-16T00:05:30;8.32;;;2.80;;
47349;SDS011;33088;51.982;5.872;2022-10-16T00:07:56;9.52;;;3.22;;
47349;SDS011;33088;51.982;5.872;2022-10-16T00:10:22;8.48;;;3.60;;
47349;SDS011;33088;51.982;5.872;2022-10-16T00:12:48;8.63;;;3.28;;
47349;SDS011;33088;51.982;5.872;2022-10-16T00:15:14;6.00;;;3.05;;
47349;SDS011;33088;51.982;5.872;2022-10-16T00:17:40;9.48;;;3.13;;
47349;SDS011;33088;51.982;5.872;2022-10-16T00:20:06;3.95;;;2.80;;
47349;SDS011;33088;51.982;5.872;2022-10-16T00:22:32;6.47;;;2.85;;
47349;SDS011;33088;51.982;5.872;2022-10-16T00:24:58;10.02;;;4.03;;
47349;SDS011;33088;51.982;5.872;2022-10-16T00:27:24;6.93;;;2.88;;
47349;SDS011;33088;51.982;5.872;2022-10-16T00:29:50;4.63;;;2.90;;
47349;SDS011;33088;51.982;5.872;2022-10-16T00:32:17;6.95;;;2.97;;
47349;SDS011;33088;51.982;5.872;2022-10-16T00:34:43;11.07;;;3.30;;
47349;SDS011;33088;51.982;5.872;2022-10-16T00:37:09;6.28;;;3.67;;
47349;SDS011;33088;51.982;5.872;2022-10-16T00:39:34;9.23;;;3.35;;
47349;SDS011;33088;51.982;5.872;2022-10-16T00:42:00;7.80;;;3.08;;
47349;SDS011;33088;51.982;5.872;2022-10-16T00:50:06;4.53;;;2.90;;
47349;SDS011;33088;51.982;5.872;2022-10-16T00:52:35;4.60;;;2.97;;
47349;SDS011;33088;51.982;5.872;2022-10-16T00:55:03;8.52;;;3.78;;
47349;SDS011;33088;51.982;5.872;2022-10-16T00:57:31;5.82;;;3.65;;
47349;SDS011;33088;51.982;5.872;2022-10-16T00:59:56;10.82;;;3.10;;
47349;SDS011;33088;51.982;5.872;2022-10-16T01:02:22;6.85;;;3.42;;
47349;SDS011;33088;51.982;5.872;2022-10-16T01:04:50;9.35;;;3.70;;
47349;SDS011;33088;51.982;5.872;2022-10-16T01:10:37;7.32;;;3.45;;
47349;SDS011;33088;51.982;5.872;2022-10-16T01:13:27;20.90;;;5.93;;
47349;SDS011;33088;51.982;5.872;2022-10-16T01:16:04;6.85;;;3.90;;
47349;SDS011;33088;51.982;5.872;2022-10-16T01:18:52;6.03;;;3.30;;
47349;SDS011;33088;51.982;5.872;2022-10-16T01:21:26;6.22;;;3.47;;
47349;SDS011;33088;51.982;5.872;2022-10-16T01:29:17;8.77;;;3.97;;
47349;SDS011;33088;51.982;5.872;2022-10-16T01:31:59;7.55;;;3.42;;
47349;SDS011;33088;51.982;5.872;2022-10-16T01:34:35;6.38;;;3.33;;
47349;SDS011;33088;51.982;5.872;2022-10-16T01:37:09;6.22;;;3.83;;
47349;SDS011;33088;51.982;5.872;2022-10-16T01:42:23;8.77;;;4.35;;
47349;SDS011;33088;51.982;5.872;2022-10-16T01:44:55;10.25;;;4.20;;
47349;SDS011;33088;51.982;5.872;2022-10-16T01:47:23;4.97;;;3.22;;
47349;SDS011;33088;51.982;5.872;2022-10-16T01:49:50;6.25;;;3.38;;
47349;SDS011;33088;51.982;5.872;2022-10-16T01:52:23;7.65;;;3.75;;
47349;SDS011;33088;51.982;5.872;2022-10-16T01:54:52;6.75;;;3.95;;
47349;SDS011;33088;51.982;5.872;2022-10-16T01:57:20;6.10;;;3.55;;
47349;SDS011;33088;51.982;5.872;2022-10-16T01:59:50;7.57;;;4.05;;
47349;SDS011;33088;51.982;5.872;2022-10-16T02:02:19;7.57;;;3.83;;
47349;SDS011;33088;51.982;5.872;2022-10-16T02:04:53;6.50;;;3.92;;
47349;SDS011;33088;51.982;5.872;2022-10-16T02:07:23;5.35;;;3.92;;
47349;SDS011;33088;51.982;5.872;2022-10-16T02:09:49;7.18;;;4.15;;
47349;SDS011;33088;51.982;5.872;2022-10-16T02:12:16;3.95;;;3.20;;
47349;SDS011;33088;51.982;5.872;2022-10-16T02:14:49;3.90;;;3.20;;
47349;SDS011;33088;51.982;5.872;2022-10-16T02:17:15;5.53;;;3.58;;
47349;SDS011;33088;51.982;5.872;2022-10-16T02:19:42;7.13;;;3.70;;
47349;SDS011;33088;51.982;5.872;2022-10-16T02:25:25;5.45;;;3.67;;
47349;SDS011;33088;51.982;5.872;2022-10-16T02:28:10;4.22;;;2.88;;
47349;SDS011;33088;51.982;5.872;2022-10-16T02:30:51;4.28;;;2.97;;
47349;SDS011;33088;51.982;5.872;2022-10-16T02:33:26;3.40;;;3.10;;
47349;SDS011;33088;51.982;5.872;2022-10-16T02:35:54;5.55;;;3.53;;
47349;SDS011;33088;51.982;5.872;2022-10-16T02:38:21;5.03;;;3.35;;
47349;SDS011;33088;51.982;5.872;2022-10-16T02:40:47;6.32;;;2.75;;
47349;SDS011;33088;51.982;5.872;2022-10-16T02:43:14;3.90;;;3.15;;
47349;SDS011;33088;51.982;5.872;2022-10-16T02:45:43;4.40;;;2.72;;
47349;SDS011;33088;51.982;5.872;2022-10-16T02:48:09;4.25;;;3.08;;
47349;SDS011;33088;51.982;5.872;2022-10-16T02:50:34;4.53;;;3.20;;
47349;SDS011;33088;51.982;5.872;2022-10-16T02:53:00;3.70;;;2.97;;
47349;SDS011;33088;51.982;5.872;2022-10-16T02:55:26;3.95;;;3.00;;
47349;SDS011;33088;51.982;5.872;2022-10-16T02:57:53;5.13;;;2.78;;
47349;SDS011;33088;51.982;5.872;2022-10-16T03:00:19;4.43;;;3.03;;
47349;SDS011;33088;51.982;5.872;2022-10-16T03:02:46;5.72;;;3.00;;
47349;SDS011;33088;51.982;5.872;2022-10-16T03:05:12;6.10;;;3.20;;
47349;SDS011;33088;51.982;5.872;2022-10-16T03:07:37;4.38;;;3.33;;
47349;SDS011;33088;51.982;5.872;2022-10-16T03:10:03;5.30;;;2.80;;
47349;SDS011;33088;51.982;5.872;2022-10-16T03:12:30;5.07;;;3.63;;
47349;SDS011;33088;51.982;5.872;2022-10-16T03:14:56;4.93;;;3.22;;
47349;SDS011;33088;51.982;5.872;2022-10-16T03:17:22;12.15;;;3.05;;
47349;SDS011;33088;51.982;5.872;2022-10-16T03:19:48;5.45;;;3.10;;
47349;SDS011;33088;51.982;5.872;2022-10-16T03:22:14;4.40;;;3.15;;
47349;SDS011;33088;51.982;5.872;2022-10-16T03:24:39;3.63;;;2.63;;
47349;SDS011;33088;51.982;5.872;2022-10-16T03:27:05;3.20;;;2.90;;
47349;SDS011;33088;51.982;5.872;2022-10-16T03:29:31;5.05;;;2.88;;
47349;SDS011;33088;51.982;5.872;2022-10-16T03:31:57;5.80;;;3.05;;
47349;SDS011;33088;51.982;5.872;2022-10-16T03:34:24;4.30;;;2.70;;
47349;SDS011;33088;51.982;5.872;2022-10-16T03:36:49;4.28;;;2.90;;
47349;SDS011;33088;51.982;5.872;2022-10-16T03:39:15;5.53;;;2.90;;
47349;SDS011;33088;51.982;5.872;2022-10-16T03:41:41;7.65;;;2.75;;
47349;SDS011;33088;51.982;5.872;2022-10-16T03:44:06;3.58;;;2.78;;
47349;SDS011;33088;51.982;5.872;2022-10-16T03:46:32;4.70;;;2.58;;
47349;SDS011;33088;51.982;5.872;2022-10-16T03:48:58;11.68;;;3.45;;
47349;SDS011;33088;51.982;5.872;2022-10-16T03:51:23;4.07;;;3.17;;
47349;SDS011;33088;51.982;5.872;2022-10-16T03:53:49;4.20;;;2.38;;
47349;SDS011;33088;51.982;5.872;2022-10-16T03:56:15;5.47;;;2.90;;
47349;SDS011;33088;51.982;5.872;2022-10-16T03:58:40;2.97;;;2.40;;
47349;SDS011;33088;51.982;5.872;2022-10-16T04:01:06;3.60;;;2.63;;
47349;SDS011;33088;51.982;5.872;2022-10-16T04:03:32;6.13;;;3.65;;
47349;SDS011;33088;51.982;5.872;2022-10-16T04:05:58;4.80;;;2.53;;
47349;SDS011;33088;51.982;5.872;2022-10-16T04:08:23;4.13;;;2.95;;
47349;SDS011;33088;51.982;5.872;2022-10-16T04:10:52;4.68;;;3.13;;
47349;SDS011;33088;51.982;5.872;2022-10-16T04:13:17;5.70;;;3.00;;
47349;SDS011;33088;51.982;5.872;2022-10-16T04:15:44;5.45;;;3.42;;
47349;SDS011;33088;51.982;5.872;2022-10-16T04:18:10;11.57;;;3.10;;
47349;SDS011;33088;51.982;5.872;2022-10-16T04:20:36;4.50;;;3.20;;
47349;SDS011;33088;51.982;5.872;2022-10-16T04:23:02;10.45;;;2.67;;
47349;SDS011;33088;51.982;5.872;2022-10-16T04:25:28;7.50;;;3.20;;
47349;SDS011;33088;51.982;5.872;2022-10-16T04:27:53;4.97;;;2.60;;
47349;SDS011;33088;51.982;5.872;2022-10-16T04:30:20;4.68;;;2.40;;
47349;SDS011;33088;51.982;5.872;2022-10-16T04:32:49;5.15;;;2.80;;
47349;SDS011;33088;51.982;5.872;2022-10-16T04:35:16;3.85;;;2.53;;
47349;SDS011;33088;51.982;5.872;2022-10-16T04:37:43;5.90;;;2.67;;
47349;SDS011;33088;51.982;5.872;2022-10-16T04:40:09;4.22;;;2.58;;
47349;SDS011;33088;51.982;5.872;2022-10-16T04:42:35;5.65;;;2.60;;
47349;SDS011;33088;51.982;5.872;2022-10-16T04:45:00;4.90;;;2.90;;
47349;SDS011;33088;51.982;5.872;2022-10-16T04:47:26;3.33;;;2.47;;
47349;SDS011;33088;51.982;5.872;2022-10-16T04:49:52;3.10;;;2.47;;
47349;SDS011;33088;51.982;5.872;2022-10-16T04:52:17;2.75;;;2.28;;
47349;SDS011;33088;51.982;5.872;2022-10-16T04:54:44;4.18;;;2.60;;
47349;SDS011;33088;51.982;5.872;2022-10-16T04:57:10;4.70;;;2.60;;
47349;SDS011;33088;51.982;5.872;2022-10-16T04:59:36;4.95;;;2.55;;
47349;SDS011;33088;51.982;5.872;2022-10-16T05:02:02;2.92;;;2.60;;
47349;SDS011;33088;51.982;5.872;2022-10-16T05:04:28;4.40;;;2.42;;
47349;SDS011;33088;51.982;5.872;2022-10-16T05:06:53;3.40;;;2.40;;
47349;SDS011;33088;51.982;5.872;2022-10-16T05:09:19;6.50;;;2.47;;
47349;SDS011;33088;51.982;5.872;2022-10-16T05:11:45;4.15;;;2.90;;
47349;SDS011;33088;51.982;5.872;2022-10-16T05:14:11;5.68;;;2.55;;
47349;SDS011;33088;51.982;5.872;2022-10-16T05:16:37;3.95;;;2.53;;
47349;SDS011;33088;51.982;5.872;2022-10-16T05:19:02;3.28;;;2.70;;
47349;SDS011;33088;51.982;5.872;2022-10-16T05:21:28;5.50;;;2.83;;
47349;SDS011;33088;51.982;5.872;2022-10-16T05:23:54;3.80;;;2.78;;
47349;SDS011;33088;51.982;5.872;2022-10-16T05:26:20;5.18;;;2.63;;
47349;SDS011;33088;51.982;5.872;2022-10-16T05:28:46;5.03;;;2.83;;
47349;SDS011;33088;51.982;5.872;2022-10-16T05:31:12;5.05;;;2.97;;
47349;SDS011;33088;51.982;5.872;2022-10-16T05:33:38;4.03;;;2.90;;
47349;SDS011;33088;51.982;5.872;2022-10-16T05:36:04;2.90;;;2.42;;
47349;SDS011;33088;51.982;5.872;2022-10-16T05:38:32;2.65;;;2.38;;
47349;SDS011;33088;51.982;5.872;2022-10-16T05:40:59;4.30;;;2.28;;
47349;SDS011;33088;51.982;5.872;2022-10-16T05:43:26;4.60;;;2.88;;
47349;SDS011;33088;51.982;5.872;2022-10-16T05:45:53;4.63;;;3.35;;
47349;SDS011;33088;51.982;5.872;2022-10-16T05:48:30;3.75;;;3.00;;
47349;SDS011;33088;51.982;5.872;2022-10-16T05:51:00;3.80;;;2.90;;
47349;SDS011;33088;51.982;5.872;2022-10-16T05:53:28;3.38;;;2.70;;
47349;SDS011;33088;51.982;5.872;2022-10-16T05:55:56;4.60;;;2.50;;
47349;SDS011;33088;51.982;5.872;2022-10-16T05:58:22;4.90;;;2.70;;
47349;SDS011;33088;51.982;5.872;2022-10-16T06:00:52;3.50;;;2.65;;
47349;SDS011;33088;51.982;5.872;2022-10-16T06:03:19;5.82;;;2.90;;
47349;SDS011;33088;51.982;5.872;2022-10-16T06:05:45;12.27;;;4.10;;
47349;SDS011;33088;51.982;5.872;2022-10-16T06:08:10;5.78;;;3.00;;
47349;SDS011;33088;51.982;5.872;2022-10-16T06:10:36;4.40;;;3.67;;
47349;SDS011;33088;51.982;5.872;2022-10-16T06:13:01;7.40;;;2.90;;
47349;SDS011;33088;51.982;5.872;2022-10-16T06:15:27;5.30;;;3.35;;
47349;SDS011;33088;51.982;5.872;2022-10-16T06:17:53;6.38;;;3.53;;
47349;SDS011;33088;51.982;5.872;2022-10-16T06:20:18;4.32;;;3.28;;
47349;SDS011;33088;51.982;5.872;2022-10-16T06:22:44;5.63;;;3.33;;
47349;SDS011;33088;51.982;5.872;2022-10-16T06:25:10;9.05;;;4.40;;
47349;SDS011;33088;51.982;5.872;2022-10-16T06:27:35;4.65;;;3.47;;
47349;SDS011;33088;51.982;5.872;2022-10-16T06:30:04;9.88;;;3.13;;
47349;SDS011;33088;51.982;5.872;2022-10-16T06:32:30;4.72;;;2.85;;
47349;SDS011;33088;51.982;5.872;2022-10-16T06:34:55;5.78;;;3.58;;
47349;SDS011;33088;51.982;5.872;2022-10-16T06:37:21;4.82;;;3.13;;
47349;SDS011;33088;51.982;5.872;2022-10-16T06:39:47;3.67;;;2.60;;
47349;SDS011;33088;51.982;5.872;2022-10-16T06:42:12;7.10;;;3.13;;
47349;SDS011;33088;51.982;5.872;2022-10-16T06:44:38;8.57;;;3.08;;
47349;SDS011;33088;51.982;5.872;2022-10-16T06:47:04;4.03;;;3.28;;
47349;SDS011;33088;51.982;5.872;2022-10-16T06:49:30;3.55;;;2.67;;
47349;SDS011;33088;51.982;5.872;2022-10-16T06:51:55;3.30;;;2.90;;
47349;SDS011;33088;51.982;5.872;2022-10-16T06:54:21;5.65;;;3.42;;
47349;SDS011;33088;51.982;5.872;2022-10-16T06:56:46;7.20;;;3.10;;
47349;SDS011;33088;51.982;5.872;2022-10-16T06:59:12;13.05;;;3.83;;
47349;SDS011;33088;51.982;5.872;2022-10-16T07:01:38;6.82;;;2.42;;
47349;SDS011;33088;51.982;5.872;2022-10-16T07:04:03;7.18;;;2.70;;
47349;SDS011;33088;51.982;5.872;2022-10-16T07:06:30;5.57;;;3.33;;
47349;SDS011;33088;51.982;5.872;2022-10-16T07:08:58;5.32;;;2.80;;
47349;SDS011;33088;51.982;5.872;2022-10-16T07:11:26;6.60;;;3.15;;
47349;SDS011;33088;51.982;5.872;2022-10-16T07:13:53;6.72;;;2.67;;
47349;SDS011;33088;51.982;5.872;2022-10-16T07:16:19;3.72;;;2.47;;
47349;SDS011;33088;51.982;5.872;2022-10-16T07:18:47;6.20;;;2.53;;
47349;SDS011;33088;51.982;5.872;2022-10-16T07:21:18;8.73;;;2.53;;
47349;SDS011;33088;51.982;5.872;2022-10-16T07:23:45;4.45;;;2.20;;
47349;SDS011;33088;51.982;5.872;2022-10-16T07:26:16;7.75;;;2.92;;
47349;SDS011;33088;51.982;5.872;2022-10-16T07:28:42;5.07;;;2.63;;
47349;SDS011;33088;51.982;5.872;2022-10-16T07:31:10;8.25;;;2.70;;
47349;SDS011;33088;51.982;5.872;2022-10-16T07:33:38;4.00;;;2.28;;
47349;SDS011;33088;51.982;5.872;2022-10-16T07:36:07;4.43;;;2.47;;
47349;SDS011;33088;51.982;5.872;2022-10-16T07:38:33;5.15;;;4.25;;
47349;SDS011;33088;51.982;5.872;2022-10-16T07:40:59;5.65;;;2.60;;
47349;SDS011;33088;51.982;5.872;2022-10-16T07:43:26;3.72;;;2.63;;
47349;SDS011;33088;51.982;5.872;2022-10-16T07:45:52;8.45;;;2.95;;
47349;SDS011;33088;51.982;5.872;2022-10-16T07:48:18;7.35;;;2.65;;
47349;SDS011;33088;51.982;5.872;2022-10-16T07:50:44;6.45;;;2.90;;
47349;SDS011;33088;51.982;5.872;2022-10-16T07:53:10;4.93;;;2.50;;
47349;SDS011;33088;51.982;5.872;2022-10-16T07:55:37;2.50;;;2.15;;
47349;SDS011;33088;51.982;5.872;2022-10-16T07:58:03;4.38;;;2.30;;
47349;SDS011;33088;51.982;5.872;2022-10-16T08:00:29;5.82;;;2.80;;
47349;SDS011;33088;51.982;5.872;2022-10-16T08:02:56;12.80;;;3.42;;
47349;SDS011;33088;51.982;5.872;2022-10-16T08:05:25;4.15;;;2.28;;
47349;SDS011;33088;51.982;5.872;2022-10-16T08:07:52;5.60;;;2.53;;
47349;SDS011;33088;51.982;5.872;2022-10-16T08:10:18;7.97;;;2.50;;
47349;SDS011;33088;51.982;5.872;2022-10-16T08:12:48;3.05;;;2.08;;
47349;SDS011;33088;51.982;5.872;2022-10-16T08:15:13;6.07;;;2.60;;
47349;SDS011;33088;51.982;5.872;2022-10-16T08:17:39;6.28;;;2.53;;
47349;SDS011;33088;51.982;5.872;2022-10-16T08:20:05;7.32;;;2.47;;
47349;SDS011;33088;51.982;5.872;2022-10-16T08:22:31;6.03;;;2.00;;
47349;SDS011;33088;51.982;5.872;2022-10-16T08:24:56;6.72;;;1.83;;
47349;SDS011;33088;51.982;5.872;2022-10-16T08:27:23;4.50;;;2.10;;
47349;SDS011;33088;51.982;5.872;2022-10-16T08:29:48;2.05;;;1.67;;
47349;SDS011;33088;51.982;5.872;2022-10-16T08:32:14;7.93;;;3.05;;
47349;SDS011;33088;51.982;5.872;2022-10-16T08:34:40;3.70;;;1.95;;
47349;SDS011;33088;51.982;5.872;2022-10-16T08:37:06;6.80;;;2.33;;
47349;SDS011;33088;51.982;5.872;2022-10-16T08:39:33;4.32;;;2.17;;
47349;SDS011;33088;51.982;5.872;2022-10-16T08:47:25;5.97;;;2.40;;
47349;SDS011;33088;51.982;5.872;2022-10-16T08:52:23;3.53;;;2.08;;
47349;SDS011;33088;51.982;5.872;2022-10-16T08:54:54;5.15;;;3.13;;
47349;SDS011;33088;51.982;5.872;2022-10-16T08:57:22;7.65;;;2.83;;
47349;SDS011;33088;51.982;5.872;2022-10-16T08:59:50;6.50;;;2.75;;
47349;SDS011;33088;51.982;5.872;2022-10-16T09:10:54;2.33;;;2.13;;
47349;SDS011;33088;51.982;5.872;2022-10-16T09:16:14;4.82;;;2.22;;
47349;SDS011;33088;51.982;5.872;2022-10-16T09:18:48;8.32;;;2.30;;
47349;SDS011;33088;51.982;5.872;2022-10-16T09:21:28;4.93;;;2.22;;
47349;SDS011;33088;51.982;5.872;2022-10-16T09:24:12;6.22;;;2.60;;
47349;SDS011;33088;51.982;5.872;2022-10-16T09:26:40;4.88;;;2.17;;
47349;SDS011;33088;51.982;5.872;2022-10-16T09:29:06;7.15;;;2.03;;
47349;SDS011;33088;51.982;5.872;2022-10-16T09:31:31;10.77;;;2.38;;
47349;SDS011;33088;51.982;5.872;2022-10-16T09:34:02;5.28;;;2.22;;
47349;SDS011;33088;51.982;5.872;2022-10-16T09:36:32;6.00;;;2.15;;
47349;SDS011;33088;51.982;5.872;2022-10-16T09:39:10;4.88;;;2.08;;
47349;SDS011;33088;51.982;5.872;2022-10-16T09:41:39;12.30;;;2.58;;
47349;SDS011;33088;51.982;5.872;2022-10-16T09:44:16;9.10;;;1.92;;
47349;SDS011;33088;51.982;5.872;2022-10-16T09:47:03;8.40;;;2.22;;
47349;SDS011;33088;51.982;5.872;2022-10-16T09:52:22;4.53;;;2.03;;
47349;SDS011;33088;51.982;5.872;2022-10-16T09:55:12;10.63;;;2.35;;
47349;SDS011;33088;51.982;5.872;2022-10-16T09:57:53;8.52;;;2.67;;
47349;SDS011;33088;51.982;5.872;2022-10-16T10:00:20;7.30;;;2.28;;
47349;SDS011;33088;51.982;5.872;2022-10-16T10:02:47;10.52;;;2.20;;
47349;SDS011;33088;51.982;5.872;2022-10-16T10:05:23;5.82;;;2.38;;
47349;SDS011;33088;51.982;5.872;2022-10-16T10:07:55;8.98;;;2.70;;
47349;SDS011;33088;51.982;5.872;2022-10-16T10:10:30;10.20;;;3.13;;
47349;SDS011;33088;51.982;5.872;2022-10-16T10:12:57;11.70;;;2.70;;
47349;SDS011;33088;51.982;5.872;2022-10-16T10:15:23;7.68;;;2.35;;
47349;SDS011;33088;51.982;5.872;2022-10-16T10:17:55;10.93;;;2.65;;
47349;SDS011;33088;51.982;5.872;2022-10-16T10:22:53;12.23;;;2.88;;
47349;SDS011;33088;51.982;5.872;2022-10-16T10:25:31;9.10;;;2.45;;
47349;SDS011;33088;51.982;5.872;2022-10-16T10:28:27;13.63;;;2.70;;
47349;SDS011;33088;51.982;5.872;2022-10-16T10:30:59;12.63;;;3.10;;
47349;SDS011;33088;51.982;5.872;2022-10-16T10:33:53;9.85;;;2.33;;
47349;SDS011;33088;51.982;5.872;2022-10-16T10:46:50;11.15;;;2.55;;
47349;SDS011;33088;51.982;5.872;2022-10-16T10:57:42;13.90;;;2.30;;
47349;SDS011;33088;51.982;5.872;2022-10-16T11:08:13;11.98;;;2.67;;
47349;SDS011;33088;51.982;5.872;2022-10-16T11:11:18;10.50;;;2.42;;
47349;SDS011;33088;51.982;5.872;2022-10-16T11:13:54;12.95;;;2.15;;
47349;SDS011;33088;51.982;5.872;2022-10-16T11:16:31;12.55;;;2.60;;
47349;SDS011;33088;51.982;5.872;2022-10-16T11:22:00;6.93;;;1.60;;
47349;SDS011;33088;51.982;5.872;2022-10-16T11:27:14;9.40;;;1.90;;
47349;SDS011;33088;51.982;5.872;2022-10-16T11:29:58;9.60;;;2.13;;
47349;SDS011;33088;51.982;5.872;2022-10-16T11:32:33;12.45;;;3.30;;
47349;SDS011;33088;51.982;5.872;2022-10-16T11:35:18;10.95;;;1.95;;
47349;SDS011;33088;51.982;5.872;2022-10-16T11:37:48;20.08;;;2.45;;
47349;SDS011;33088;51.982;5.872;2022-10-16T11:40:37;6.50;;;2.00;;
47349;SDS011;33088;51.982;5.872;2022-10-16T11:43:17;14.35;;;2.38;;
47349;SDS011;33088;51.982;5.872;2022-10-16T11:45:49;5.50;;;1.80;;
47349;SDS011;33088;51.982;5.872;2022-10-16T11:50:58;9.07;;;2.33;;
47349;SDS011;33088;51.982;5.872;2022-10-16T11:56:19;11.27;;;1.90;;
47349;SDS011;33088;51.982;5.872;2022-10-16T12:01:35;13.23;;;2.65;;
47349;SDS011;33088;51.982;5.872;2022-10-16T12:09:37;17.38;;;2.50;;
47349;SDS011;33088;51.982;5.872;2022-10-16T12:12:04;12.95;;;2.35;;
47349;SDS011;33088;51.982;5.872;2022-10-16T12:14:48;10.38;;;2.10;;
47349;SDS011;33088;51.982;5.872;2022-10-16T12:17:27;9.40;;;2.08;;
47349;SDS011;33088;51.982;5.872;2022-10-16T12:25:23;7.50;;;1.88;;
47349;SDS011;33088;51.982;5.872;2022-10-16T12:28:06;10.88;;;2.55;;
47349;SDS011;33088;51.982;5.872;2022-10-16T12:30:55;11.68;;;3.33;;
47349;SDS011;33088;51.982;5.872;2022-10-16T12:33:36;14.35;;;1.95;;
47349;SDS011;33088;51.982;5.872;2022-10-16T12:36:12;10.80;;;2.17;;
47349;SDS011;33088;51.982;5.872;2022-10-16T12:38:45;9.55;;;2.08;;
47349;SDS011;33088;51.982;5.872;2022-10-16T12:41:23;7.45;;;1.65;;
47349;SDS011;33088;51.982;5.872;2022-10-16T12:44:04;7.97;;;2.00;;
47349;SDS011;33088;51.982;5.872;2022-10-16T12:51:39;13.10;;;2.92;;
47349;SDS011;33088;51.982;5.872;2022-10-16T12:54:13;13.23;;;2.85;;
47349;SDS011;33088;51.982;5.872;2022-10-16T13:10:41;9.30;;;1.90;;
47349;SDS011;33088;51.982;5.872;2022-10-16T13:16:15;20.65;;;2.58;;
47349;SDS011;33088;51.982;5.872;2022-10-16T13:21:51;10.13;;;2.42;;
47349;SDS011;33088;51.982;5.872;2022-10-16T13:29:59;15.23;;;2.17;;
47349;SDS011;33088;51.982;5.872;2022-10-16T13:32:38;10.80;;;2.22;;
47349;SDS011;33088;51.982;5.872;2022-10-16T13:35:18;8.00;;;2.65;;
47349;SDS011;33088;51.982;5.872;2022-10-16T13:37:45;11.20;;;2.60;;
47349;SDS011;33088;51.982;5.872;2022-10-16T13:40:21;12.55;;;2.58;;
47349;SDS011;33088;51.982;5.872;2022-10-16T13:42:49;15.00;;;2.38;;
47349;SDS011;33088;51.982;5.872;2022-10-16T13:45:18;12.80;;;2.47;;
47349;SDS011;33088;51.982;5.872;2022-10-16T13:47:45;14.15;;;2.35;;
47349;SDS011;33088;51.982;5.872;2022-10-16T13:50:12;8.38;;;2.17;;
47349;SDS011;33088;51.982;5.872;2022-10-16T13:52:39;12.20;;;3.17;;
47349;SDS011;33088;51.982;5.872;2022-10-16T13:55:13;10.07;;;2.20;;
47349;SDS011;33088;51.982;5.872;2022-10-16T13:57:40;10.10;;;2.22;;
47349;SDS011;33088;51.982;5.872;2022-10-16T14:00:23;10.38;;;2.42;;
47349;SDS011;33088;51.982;5.872;2022-10-16T14:03:00;16.52;;;2.28;;
47349;SDS011;33088;51.982;5.872;2022-10-16T14:05:28;10.63;;;3.05;;
47349;SDS011;33088;51.982;5.872;2022-10-16T14:07:54;11.25;;;2.90;;
47349;SDS011;33088;51.982;5.872;2022-10-16T14:10:22;9.93;;;2.28;;
47349;SDS011;33088;51.982;5.872;2022-10-16T14:12:55;7.70;;;2.33;;
47349;SDS011;33088;51.982;5.872;2022-10-16T14:15:25;10.63;;;3.53;;
47349;SDS011;33088;51.982;5.872;2022-10-16T14:17:51;7.72;;;2.25;;
47349;SDS011;33088;51.982;5.872;2022-10-16T14:20:18;9.07;;;2.58;;
47349;SDS011;33088;51.982;5.872;2022-10-16T14:22:46;12.70;;;2.35;;
47349;SDS011;33088;51.982;5.872;2022-10-16T14:27:59;7.95;;;1.90;;
47349;SDS011;33088;51.982;5.872;2022-10-16T14:30:53;13.10;;;2.10;;
47349;SDS011;33088;51.982;5.872;2022-10-16T14:36:03;6.97;;;1.73;;
47349;SDS011;33088;51.982;5.872;2022-10-16T14:38:38;8.80;;;2.10;;
47349;SDS011;33088;51.982;5.872;2022-10-16T14:41:06;8.45;;;1.92;;
47349;SDS011;33088;51.982;5.872;2022-10-16T14:43:32;12.30;;;2.83;;
47349;SDS011;33088;51.982;5.872;2022-10-16T14:45:59;15.57;;;2.00;;
47349;SDS011;33088;51.982;5.872;2022-10-16T14:48:26;11.30;;;1.75;;
47349;SDS011;33088;51.982;5.872;2022-10-16T14:50:51;9.50;;;2.78;;
47349;SDS011;33088;51.982;5.872;2022-10-16T14:53:17;8.63;;;1.92;;
47349;SDS011;33088;51.982;5.872;2022-10-16T14:55:43;7.60;;;2.08;;
47349;SDS011;33088;51.982;5.872;2022-10-16T14:58:30;9.43;;;2.28;;
47349;SDS011;33088;51.982;5.872;2022-10-16T15:00:55;7.75;;;2.10;;
47349;SDS011;33088;51.982;5.872;2022-10-16T15:03:21;9.30;;;2.08;;
47349;SDS011;33088;51.982;5.872;2022-10-16T15:05:47;8.85;;;1.95;;
47349;SDS011;33088;51.982;5.872;2022-10-16T15:08:13;8.32;;;1.85;;
47349;SDS011;33088;51.982;5.872;2022-10-16T15:10:40;9.23;;;1.83;;
47349;SDS011;33088;51.982;5.872;2022-10-16T15:13:11;6.85;;;1.50;;
47349;SDS011;33088;51.982;5.872;2022-10-16T15:15:43;11.13;;;2.42;;
47349;SDS011;33088;51.982;5.872;2022-10-16T15:18:10;10.27;;;3.55;;
47349;SDS011;33088;51.982;5.872;2022-10-16T15:20:37;11.30;;;2.33;;
47349;SDS011;33088;51.982;5.872;2022-10-16T15:23:05;5.97;;;1.60;;
47349;SDS011;33088;51.982;5.872;2022-10-16T15:25:46;9.00;;;2.17;;
47349;SDS011;33088;51.982;5.872;2022-10-16T15:28:20;9.25;;;1.85;;
47349;SDS011;33088;51.982;5.872;2022-10-16T15:30:50;8.15;;;1.85;;
47349;SDS011;33088;51.982;5.872;2022-10-16T15:33:18;8.65;;;2.47;;
47349;SDS011;33088;51.982;5.872;2022-10-16T15:35:58;6.65;;;1.77;;
47349;SDS011;33088;51.982;5.872;2022-10-16T15:38:23;7.38;;;1.95;;
47349;SDS011;33088;51.982;5.872;2022-10-16T15:40:50;6.32;;;2.45;;
47349;SDS011;33088;51.982;5.872;2022-10-16T15:43:18;3.58;;;1.30;;
47349;SDS011;33088;51.982;5.872;2022-10-16T15:45:44;12.05;;;2.10;;
47349;SDS011;33088;51.982;5.872;2022-10-16T15:48:22;6.78;;;2.17;;
47349;SDS011;33088;51.982;5.872;2022-10-16T15:50:48;11.07;;;2.15;;
47349;SDS011;33088;51.982;5.872;2022-10-16T15:53:14;6.20;;;2.22;;
47349;SDS011;33088;51.982;5.872;2022-10-16T15:55:39;5.47;;;1.67;;
47349;SDS011;33088;51.982;5.872;2022-10-16T15:58:05;9.05;;;1.85;;
47349;SDS011;33088;51.982;5.872;2022-10-16T16:00:31;8.82;;;1.75;;
47349;SDS011;33088;51.982;5.872;2022-10-16T16:02:57;7.03;;;1.92;;
47349;SDS011;33088;51.982;5.872;2022-10-16T16:05:22;8.82;;;2.00;;
47349;SDS011;33088;51.982;5.872;2022-10-16T16:07:48;8.18;;;1.90;;
47349;SDS011;33088;51.982;5.872;2022-10-16T16:10:15;6.78;;;1.65;;
47349;SDS011;33088;51.982;5.872;2022-10-16T16:12:41;12.23;;;2.22;;
47349;SDS011;33088;51.982;5.872;2022-10-16T16:15:08;3.72;;;1.58;;
47349;SDS011;33088;51.982;5.872;2022-10-16T16:17:34;10.80;;;2.63;;
47349;SDS011;33088;51.982;5.872;2022-10-16T16:20:01;8.25;;;2.22;;
47349;SDS011;33088;51.982;5.872;2022-10-16T16:22:28;9.30;;;1.92;;
47349;SDS011;33088;51.982;5.872;2022-10-16T16:24:54;5.65;;;1.67;;
47349;SDS011;33088;51.982;5.872;2022-10-16T16:27:20;9.68;;;2.42;;
47349;SDS011;33088;51.982;5.872;2022-10-16T16:29:46;7.80;;;1.92;;
47349;SDS011;33088;51.982;5.872;2022-10-16T16:32:12;8.13;;;2.10;;
47349;SDS011;33088;51.982;5.872;2022-10-16T16:34:38;7.93;;;2.00;;
47349;SDS011;33088;51.982;5.872;2022-10-16T16:37:04;7.57;;;2.22;;
47349;SDS011;33088;51.982;5.872;2022-10-16T16:39:29;10.45;;;2.47;;
47349;SDS011;33088;51.982;5.872;2022-10-16T16:41:56;7.35;;;2.60;;
47349;SDS011;33088;51.982;5.872;2022-10-16T16:44:23;7.70;;;2.33;;
47349;SDS011;33088;51.982;5.872;2022-10-16T16:46:49;9.95;;;2.97;;
47349;SDS011;33088;51.982;5.872;2022-10-16T16:49:15;6.03;;;2.63;;
47349;SDS011;33088;51.982;5.872;2022-10-16T16:51:41;7.63;;;1.92;;
47349;SDS011;33088;51.982;5.872;2022-10-16T16:54:07;8.65;;;2.38;;
47349;SDS011;33088;51.982;5.872;2022-10-16T16:56:34;8.15;;;2.53;;
47349;SDS011;33088;51.982;5.872;2022-10-16T16:59:00;11.15;;;3.13;;
47349;SDS011;33088;51.982;5.872;2022-10-16T17:01:27;11.15;;;3.38;;
47349;SDS011;33088;51.982;5.872;2022-10-16T17:03:53;7.85;;;2.97;;
47349;SDS011;33088;51.982;5.872;2022-10-16T17:06:21;13.02;;;3.28;;
47349;SDS011;33088;51.982;5.872;2022-10-16T17:08:49;11.27;;;3.75;;